createdAt,value
2019-04-29T00:00:29.582Z,911.55
2019-04-29T00:01:29.771Z,911.53
2019-04-29T00:02:29.524Z,911.58
2019-04-29T00:03:29.509Z,911.55
2019-04-29T00:04:29.454Z,911.56
2019-04-29T00:05:29.445Z,911.60
2019-04-29T00:06:29.381Z,911.61
2019-04-29T00:07:29.351Z,911.62
2019-04-29T00:08:29.337Z,911.62
2019-04-29T00:09:30.918Z,911.56
2019-04-29T00:10:29.242Z,911.59
2019-04-29T00:11:29.238Z,911.57
2019-04-29T00:12:29.173Z,911.57
2019-04-29T00:13:29.292Z,911.54
2019-04-29T00:14:29.133Z,911.54
2019-04-29T00:15:29.121Z,911.57
2019-04-29T00:16:29.083Z,911.55
2019-04-29T00:17:29.053Z,911.57
2019-04-29T00:19:28.972Z,911.57
2019-04-29T00:20:28.960Z,911.56
2019-04-29T00:21:28.872Z,911.55
2019-04-29T00:22:28.881Z,911.55
2019-04-29T00:23:28.852Z,911.56
2019-04-29T00:24:28.857Z,911.53
2019-04-29T00:25:28.795Z,911.56
2019-04-29T00:26:28.742Z,911.55
2019-04-29T00:27:28.687Z,911.58
2019-04-29T00:28:28.694Z,911.54
2019-04-29T00:29:28.674Z,911.64
2019-04-29T00:30:28.623Z,911.59
2019-04-29T00:31:28.572Z,911.64
2019-04-29T00:32:28.543Z,911.68
2019-04-29T00:33:28.672Z,911.66
2019-04-29T00:34:28.497Z,911.68
2019-04-29T00:35:28.480Z,911.70
2019-04-29T00:36:28.467Z,911.72
2019-04-29T00:37:28.395Z,911.72
2019-04-29T00:38:28.405Z,911.74
2019-04-29T00:39:28.328Z,911.72
2019-04-29T00:40:28.320Z,911.72
2019-04-29T00:41:28.253Z,911.71
2019-04-29T00:42:28.216Z,911.74
2019-04-29T00:43:28.197Z,911.72
2019-04-29T00:44:28.170Z,911.72
2019-04-29T00:45:28.136Z,911.76
2019-04-29T00:46:28.124Z,911.77
2019-04-29T00:47:28.086Z,911.73
2019-04-29T00:48:28.081Z,911.78
2019-04-29T00:49:27.995Z,911.75
2019-04-29T00:50:27.980Z,911.77
2019-04-29T00:51:27.931Z,911.75
2019-04-29T00:52:27.904Z,911.78
2019-04-29T00:53:27.904Z,911.78
2019-04-29T00:54:27.883Z,911.81
2019-04-29T00:55:27.844Z,911.84
2019-04-29T00:56:27.818Z,911.89
2019-04-29T00:57:27.737Z,911.87
2019-04-29T00:58:27.700Z,911.89
2019-04-29T00:59:27.674Z,911.92
2019-04-29T01:00:27.881Z,911.90
2019-04-29T01:01:27.642Z,911.88
2019-04-29T01:02:27.616Z,911.90
2019-04-29T01:03:27.559Z,911.87
2019-04-29T01:04:27.506Z,911.89
2019-04-29T01:05:27.518Z,911.89
2019-04-29T01:06:27.576Z,911.91
2019-04-29T01:07:27.422Z,911.89
2019-04-29T01:08:27.397Z,911.91
2019-04-29T01:09:27.386Z,911.96
2019-04-29T01:10:27.355Z,911.92
2019-04-29T01:12:27.296Z,911.93
2019-04-29T01:13:27.239Z,911.95
2019-04-29T01:14:27.337Z,911.93
2019-04-29T01:15:27.171Z,911.96
2019-04-29T01:16:27.109Z,912.01
2019-04-29T01:17:27.137Z,911.97
2019-04-29T01:18:27.287Z,911.98
2019-04-29T01:19:27.041Z,911.97
2019-04-29T01:20:26.998Z,912.00
2019-04-29T01:21:26.976Z,912.02
2019-04-29T01:22:26.921Z,912.02
2019-04-29T01:23:26.911Z,912.02
2019-04-29T01:24:26.874Z,912.00
2019-04-29T01:25:26.859Z,911.98
2019-04-29T01:26:26.801Z,912.00
2019-04-29T01:27:26.800Z,912.01
2019-04-29T01:28:26.819Z,912.01
2019-04-29T01:29:26.695Z,912.00
2019-04-29T01:30:26.649Z,911.97
2019-04-29T01:31:26.654Z,911.98
2019-04-29T01:35:26.542Z,912.03
2019-04-29T01:36:59.696Z,912.02
2019-04-29T01:37:26.421Z,912.02
2019-04-29T01:38:26.560Z,912.03
2019-04-29T01:39:59.611Z,912.01
2019-04-29T01:40:26.493Z,912.06
2019-04-29T01:41:26.322Z,912.03
2019-04-29T01:42:26.327Z,912.07
2019-04-29T01:43:26.264Z,912.02
2019-04-29T01:45:26.185Z,912.03
2019-04-29T01:46:26.189Z,912.07
2019-04-29T01:48:26.117Z,912.00
2019-04-29T01:49:30.225Z,912.04
2019-04-29T01:50:26.124Z,912.06
2019-04-29T01:51:30.044Z,912.06
2019-04-29T01:52:30.937Z,912.04
2019-04-29T01:53:25.960Z,912.04
2019-04-29T01:54:25.881Z,912.09
2019-04-29T01:55:29.797Z,912.07
2019-04-29T01:56:25.832Z,912.06
2019-04-29T01:57:25.829Z,912.06
2019-04-29T01:58:25.775Z,912.10
2019-04-29T02:00:29.414Z,912.08
2019-04-29T02:01:25.704Z,912.05
2019-04-29T02:02:25.650Z,912.04
2019-04-29T02:03:25.604Z,912.07
2019-04-29T02:04:25.587Z,912.05
2019-04-29T02:05:25.538Z,912.05
2019-04-29T02:06:25.547Z,912.06
2019-04-29T02:07:25.528Z,912.10
2019-04-29T02:08:25.436Z,912.10
2019-04-29T02:09:25.400Z,912.11
2019-04-29T02:10:58.649Z,912.13
2019-04-29T02:11:25.377Z,912.11
2019-04-29T02:12:25.351Z,912.15
2019-04-29T02:13:25.272Z,912.14
2019-04-29T02:14:25.252Z,912.15
2019-04-29T02:15:25.214Z,912.13
2019-04-29T02:16:25.205Z,912.15
2019-04-29T02:17:25.133Z,912.15
2019-04-29T02:18:25.136Z,912.16
2019-04-29T02:19:25.106Z,912.14
2019-04-29T02:20:25.383Z,912.13
2019-04-29T02:21:25.025Z,912.21
2019-04-29T02:22:25.021Z,912.15
2019-04-29T02:23:24.981Z,912.16
2019-04-29T02:24:24.936Z,912.17
2019-04-29T02:25:24.913Z,912.20
2019-04-29T02:26:24.876Z,912.21
2019-04-29T02:27:47.527Z,912.19
2019-04-29T02:28:24.788Z,912.17
2019-04-29T02:29:24.776Z,912.15
2019-04-29T02:30:24.744Z,912.17
2019-04-29T02:31:24.702Z,912.20
2019-04-29T02:32:24.688Z,912.20
2019-04-29T02:33:29.575Z,912.23
2019-04-29T02:34:24.639Z,912.24
2019-04-29T02:35:24.722Z,912.22
2019-04-29T02:36:29.998Z,912.21
2019-04-29T02:37:24.566Z,912.23
2019-04-29T02:38:24.445Z,912.25
2019-04-29T02:39:24.462Z,912.23
2019-04-29T02:40:28.105Z,912.24
2019-04-29T02:41:29.812Z,912.30
2019-04-29T02:42:24.360Z,912.33
2019-04-29T02:43:24.294Z,912.31
2019-04-29T02:44:24.251Z,912.34
2019-04-29T02:47:24.218Z,912.41
2019-04-29T02:48:28.439Z,912.38
2019-04-29T02:49:24.129Z,912.40
2019-04-29T02:50:24.075Z,912.39
2019-04-29T02:51:24.032Z,912.39
2019-04-29T02:52:24.021Z,912.41
2019-04-29T02:53:28.053Z,912.40
2019-04-29T02:54:23.952Z,912.36
2019-04-29T02:55:23.922Z,912.36
2019-04-29T02:56:23.898Z,912.33
2019-04-29T02:57:23.853Z,912.37
2019-04-29T02:58:57.035Z,912.32
2019-04-29T02:59:23.794Z,912.33
2019-04-29T03:00:23.749Z,912.32
2019-04-29T03:01:23.706Z,912.31
2019-04-29T03:02:23.913Z,912.32
2019-04-29T03:03:23.690Z,912.29
2019-04-29T03:04:27.544Z,912.31
2019-04-29T03:05:23.595Z,912.32
2019-04-29T03:06:23.577Z,912.31
2019-04-29T03:07:23.702Z,912.30
2019-04-29T03:08:23.506Z,912.25
2019-04-29T03:09:23.423Z,912.24
2019-04-29T03:10:23.409Z,912.23
2019-04-29T03:11:23.411Z,912.25
2019-04-29T03:12:23.388Z,912.27
2019-04-29T03:13:23.367Z,912.26
2019-04-29T03:14:23.315Z,912.28
2019-04-29T03:15:23.272Z,912.23
2019-04-29T03:16:23.351Z,912.24
2019-04-29T03:18:23.192Z,912.25
2019-04-29T03:19:23.133Z,912.22
2019-04-29T03:23:56.241Z,912.19
2019-04-29T03:24:29.150Z,912.22
2019-04-29T03:25:22.935Z,912.21
2019-04-29T03:26:22.907Z,912.20
2019-04-29T03:27:22.906Z,912.19
2019-04-29T03:28:22.889Z,912.23
2019-04-29T03:29:22.807Z,912.20
2019-04-29T03:30:22.833Z,912.21
2019-04-29T03:31:22.750Z,912.19
2019-04-29T03:32:22.719Z,912.19
2019-04-29T03:34:22.665Z,912.13
2019-04-29T03:35:22.582Z,912.15
2019-04-29T03:36:22.582Z,912.14
2019-04-29T03:37:22.558Z,912.14
2019-04-29T03:38:22.536Z,912.13
2019-04-29T03:40:29.421Z,912.05
2019-04-29T03:41:22.425Z,912.04
2019-04-29T03:42:22.437Z,912.04
2019-04-29T03:43:45.087Z,912.02
2019-04-29T03:44:22.335Z,912.02
2019-04-29T03:46:25.977Z,911.97
2019-04-29T03:47:27.130Z,911.94
2019-04-29T03:48:22.200Z,911.97
2019-04-29T03:49:22.154Z,911.91
2019-04-29T03:50:22.139Z,911.88
2019-04-29T03:51:22.128Z,911.87
2019-04-29T03:52:22.045Z,911.87
2019-04-29T03:53:22.029Z,911.85
2019-04-29T03:54:21.983Z,911.84
2019-04-29T03:56:21.942Z,911.82
2019-04-29T03:57:21.869Z,911.82
2019-04-29T03:58:21.874Z,911.85
2019-04-29T03:59:21.855Z,911.84
2019-04-29T04:00:21.842Z,911.83
2019-04-29T04:01:21.751Z,911.83
2019-04-29T04:02:21.762Z,911.79
2019-04-29T04:03:21.705Z,911.79
2019-04-29T04:04:21.698Z,911.80
2019-04-29T04:05:21.722Z,911.83
2019-04-29T04:06:21.614Z,911.81
2019-04-29T04:07:21.567Z,911.81
2019-04-29T04:08:21.515Z,911.82
2019-04-29T04:09:21.509Z,911.80
2019-04-29T04:10:21.466Z,911.75
2019-04-29T04:11:21.661Z,911.79
2019-04-29T04:12:21.389Z,911.79
2019-04-29T04:13:21.429Z,911.75
2019-04-29T04:14:21.331Z,911.75
2019-04-29T04:15:21.421Z,911.74
2019-04-29T04:16:24.991Z,911.72
2019-04-29T04:17:21.262Z,911.76
2019-04-29T04:19:21.197Z,911.74
2019-04-29T04:20:50.300Z,911.73
2019-04-29T04:21:21.119Z,911.73
2019-04-29T04:22:21.096Z,911.71
2019-04-29T04:23:21.053Z,911.74
2019-04-29T04:24:21.024Z,911.71
2019-04-29T04:25:21.013Z,911.73
2019-04-29T04:26:20.981Z,911.70
2019-04-29T04:27:20.914Z,911.69
2019-04-29T04:28:20.946Z,911.71
2019-04-29T04:29:20.880Z,911.71
2019-04-29T04:30:20.890Z,911.73
2019-04-29T04:31:20.766Z,911.73
2019-04-29T04:32:20.757Z,911.77
2019-04-29T04:33:20.728Z,911.76
2019-04-29T04:34:20.661Z,911.77
2019-04-29T04:36:20.623Z,911.79
2019-04-29T04:37:20.664Z,911.82
2019-04-29T04:38:20.571Z,911.79
2019-04-29T04:39:20.544Z,911.83
2019-04-29T04:40:20.472Z,911.81
2019-04-29T04:41:20.433Z,911.82
2019-04-29T04:42:20.412Z,911.79
2019-04-29T04:43:23.720Z,911.75
2019-04-29T04:44:20.351Z,911.75
2019-04-29T04:45:20.342Z,911.74
2019-04-29T04:46:20.287Z,911.76
2019-04-29T04:47:20.354Z,911.70
2019-04-29T04:48:20.232Z,911.70
2019-04-29T04:49:20.184Z,911.67
2019-04-29T04:50:20.136Z,911.65
2019-04-29T04:51:20.119Z,911.66
2019-04-29T04:52:20.070Z,911.63
2019-04-29T04:53:20.045Z,911.61
2019-04-29T04:54:19.992Z,911.65
2019-04-29T04:55:20.009Z,911.64
2019-04-29T04:56:19.949Z,911.64
2019-04-29T04:57:19.867Z,911.64
2019-04-29T04:58:19.880Z,911.61
2019-04-29T04:59:19.811Z,911.63
2019-04-29T05:00:20.269Z,911.58
2019-04-29T05:01:19.769Z,911.57
2019-04-29T05:02:19.734Z,911.57
2019-04-29T05:03:19.843Z,911.54
2019-04-29T05:04:19.635Z,911.54
2019-04-29T05:05:19.617Z,911.52
2019-04-29T05:06:19.565Z,911.49
2019-04-29T05:07:19.533Z,911.46
2019-04-29T05:08:19.526Z,911.48
2019-04-29T05:09:19.471Z,911.49
2019-04-29T05:10:19.438Z,911.45
2019-04-29T05:11:19.423Z,911.45
2019-04-29T05:12:19.376Z,911.46
2019-04-29T05:13:28.021Z,911.49
2019-04-29T05:14:19.314Z,911.46
2019-04-29T05:15:19.290Z,911.47
2019-04-29T05:16:19.241Z,911.45
2019-04-29T05:17:19.237Z,911.45
2019-04-29T05:18:19.192Z,911.44
2019-04-29T05:19:19.173Z,911.45
2019-04-29T05:20:19.107Z,911.48
2019-04-29T05:21:19.075Z,911.42
2019-04-29T05:22:19.063Z,911.42
2019-04-29T05:23:19.040Z,911.38
2019-04-29T05:24:18.979Z,911.38
2019-04-29T05:25:18.959Z,911.37
2019-04-29T05:26:18.907Z,911.38
2019-04-29T05:27:18.947Z,911.36
2019-04-29T05:28:18.850Z,911.36
2019-04-29T05:29:18.830Z,911.37
2019-04-29T05:30:18.787Z,911.35
2019-04-29T05:31:18.768Z,911.34
2019-04-29T05:32:18.735Z,911.34
2019-04-29T05:33:18.681Z,911.32
2019-04-29T05:34:18.670Z,911.31
2019-04-29T05:35:20.845Z,911.30
2019-04-29T05:36:18.586Z,911.29
2019-04-29T05:37:18.568Z,911.28
2019-04-29T05:38:18.543Z,911.28
2019-04-29T05:39:18.504Z,911.29
2019-04-29T05:40:18.475Z,911.27
2019-04-29T05:41:18.615Z,911.30
2019-04-29T05:42:18.420Z,911.28
2019-04-29T05:43:18.351Z,911.26
2019-04-29T05:44:19.130Z,911.25
2019-04-29T05:45:18.291Z,911.28
2019-04-29T05:46:21.627Z,911.25
2019-04-29T05:47:18.224Z,911.25
2019-04-29T05:48:18.186Z,911.21
2019-04-29T05:49:18.198Z,911.21
2019-04-29T05:50:18.474Z,911.20
2019-04-29T05:51:18.113Z,911.23
2019-04-29T05:52:18.055Z,911.24
2019-04-29T05:53:18.043Z,911.23
2019-04-29T05:54:17.990Z,911.22
2019-04-29T05:55:17.976Z,911.19
2019-04-29T05:56:17.950Z,911.18
2019-04-29T05:57:20.454Z,911.19
2019-04-29T05:58:17.882Z,911.16
2019-04-29T05:59:17.846Z,911.13
2019-04-29T06:00:18.877Z,911.15
2019-04-29T06:01:17.763Z,911.16
2019-04-29T06:02:17.747Z,911.17
2019-04-29T06:03:17.694Z,911.16
2019-04-29T06:04:18.238Z,911.17
2019-04-29T06:05:17.632Z,911.18
2019-04-29T06:06:17.622Z,911.16
2019-04-29T06:07:21.523Z,911.16
2019-04-29T06:08:17.534Z,911.16
2019-04-29T06:09:18.452Z,911.14
2019-04-29T06:10:18.193Z,911.12
2019-04-29T06:11:17.435Z,911.12
2019-04-29T06:12:17.423Z,911.16
2019-04-29T06:13:17.488Z,911.14
2019-04-29T06:14:17.350Z,911.17
2019-04-29T06:15:17.320Z,911.16
2019-04-29T06:16:21.012Z,911.16
2019-04-29T06:17:17.260Z,911.18
2019-04-29T06:18:17.651Z,911.14
2019-04-29T06:19:17.167Z,911.14
2019-04-29T06:20:17.559Z,911.13
2019-04-29T06:21:17.118Z,911.15
2019-04-29T06:22:17.118Z,911.13
2019-04-29T06:23:18.943Z,911.13
2019-04-29T06:24:17.031Z,911.12
2019-04-29T06:25:16.998Z,911.09
2019-04-29T06:26:16.958Z,911.09
2019-04-29T06:27:16.905Z,911.07
2019-04-29T06:28:16.877Z,911.05
2019-04-29T06:30:16.807Z,911.03
2019-04-29T06:31:16.828Z,911.04
2019-04-29T06:32:20.176Z,911.01
2019-04-29T06:33:16.735Z,910.97
2019-04-29T06:34:16.829Z,911.00
2019-04-29T06:35:16.678Z,911.00
2019-04-29T06:36:16.627Z,911.00
2019-04-29T06:37:16.575Z,911.01
2019-04-29T06:38:16.549Z,911.01
2019-04-29T06:39:16.531Z,911.00
2019-04-29T06:40:16.655Z,910.95
2019-04-29T06:41:16.462Z,910.98
2019-04-29T06:42:19.637Z,910.98
2019-04-29T06:43:17.149Z,910.98
2019-04-29T06:44:16.928Z,910.98
2019-04-29T06:45:16.344Z,910.95
2019-04-29T06:46:16.290Z,910.98
2019-04-29T06:47:17.094Z,910.94
2019-04-29T06:48:16.246Z,910.89
2019-04-29T06:49:16.190Z,910.91
2019-04-29T06:50:16.168Z,910.88
2019-04-29T06:51:16.118Z,910.90
2019-04-29T06:52:16.099Z,910.89
2019-04-29T06:53:16.353Z,910.86
2019-04-29T06:54:16.044Z,910.89
2019-04-29T06:55:16.004Z,910.93
2019-04-29T06:56:15.973Z,910.91
2019-04-29T06:57:15.941Z,910.95
2019-04-29T06:58:15.923Z,910.94
2019-04-29T06:59:15.869Z,910.91
2019-04-29T07:00:17.669Z,910.92
2019-04-29T07:01:15.822Z,910.91
2019-04-29T07:02:16.097Z,910.93
2019-04-29T07:03:15.716Z,910.92
2019-04-29T07:04:15.684Z,910.91
2019-04-29T07:05:15.678Z,910.93
2019-04-29T07:06:15.919Z,910.93
2019-04-29T07:07:15.594Z,910.92
2019-04-29T07:08:15.556Z,910.95
2019-04-29T07:09:15.520Z,910.94
2019-04-29T07:10:16.471Z,910.90
2019-04-29T07:11:15.491Z,910.93
2019-04-29T07:12:15.628Z,910.91
2019-04-29T07:13:17.973Z,910.90
2019-04-29T07:14:15.377Z,910.90
2019-04-29T07:15:15.343Z,910.89
2019-04-29T07:16:17.008Z,910.89
2019-04-29T07:17:15.253Z,910.90
2019-04-29T07:18:15.242Z,910.87
2019-04-29T07:19:15.208Z,910.90
2019-04-29T07:20:15.187Z,910.86
2019-04-29T07:21:15.140Z,910.86
2019-04-29T07:22:15.087Z,910.85
2019-04-29T07:23:15.111Z,910.85
2019-04-29T07:24:15.047Z,910.83
2019-04-29T07:25:14.992Z,910.86
2019-04-29T07:26:14.992Z,910.83
2019-04-29T07:27:14.921Z,910.80
2019-04-29T07:28:18.322Z,910.80
2019-04-29T07:29:14.884Z,910.78
2019-04-29T07:30:14.846Z,910.79
2019-04-29T07:31:14.829Z,910.79
2019-04-29T07:32:14.757Z,910.78
2019-04-29T07:33:22.073Z,910.78
2019-04-29T07:34:14.739Z,910.78
2019-04-29T07:35:14.666Z,910.82
2019-04-29T07:36:18.518Z,910.83
2019-04-29T07:37:16.629Z,910.84
2019-04-29T07:38:14.584Z,910.84
2019-04-29T07:39:14.552Z,910.85
2019-04-29T07:40:14.495Z,910.85
2019-04-29T07:41:18.865Z,910.84
2019-04-29T07:42:14.424Z,910.81
2019-04-29T07:43:14.420Z,910.88
2019-04-29T07:44:18.363Z,910.88
2019-04-29T07:45:14.326Z,910.88
2019-04-29T07:46:16.385Z,910.89
2019-04-29T07:47:14.291Z,910.89
2019-04-29T07:48:14.230Z,910.93
2019-04-29T07:49:17.178Z,910.93
2019-04-29T07:50:14.210Z,910.95
2019-04-29T07:51:14.150Z,910.92
2019-04-29T07:52:14.558Z,910.98
2019-04-29T07:53:14.083Z,910.99
2019-04-29T07:54:16.017Z,910.98
2019-04-29T07:55:13.997Z,910.95
2019-04-29T07:56:13.998Z,910.97
2019-04-29T07:57:16.465Z,910.97
2019-04-29T07:58:13.922Z,910.99
2019-04-29T07:59:13.889Z,910.98
2019-04-29T08:00:14.636Z,911.02
2019-04-29T08:01:13.810Z,911.02
2019-04-29T08:02:13.760Z,910.99
2019-04-29T08:03:13.753Z,911.00
2019-04-29T08:04:13.716Z,911.00
2019-04-29T08:05:13.942Z,910.98
2019-04-29T08:06:13.666Z,910.97
2019-04-29T08:07:13.593Z,911.01
2019-04-29T08:08:16.804Z,910.94
2019-04-29T08:09:13.536Z,910.93
2019-04-29T08:10:23.288Z,910.90
2019-04-29T08:11:13.658Z,910.94
2019-04-29T08:12:13.448Z,910.92
2019-04-29T08:13:13.418Z,910.89
2019-04-29T08:14:13.388Z,910.90
2019-04-29T08:15:13.349Z,910.89
2019-04-29T08:16:17.199Z,910.93
2019-04-29T08:17:13.365Z,910.98
2019-04-29T08:18:16.717Z,910.98
2019-04-29T08:19:13.199Z,910.98
2019-04-29T08:20:13.186Z,911.03
2019-04-29T08:21:14.450Z,911.01
2019-04-29T08:22:16.405Z,911.03
2019-04-29T08:23:13.065Z,911.04
2019-04-29T08:24:15.907Z,911.04
2019-04-29T08:25:13.017Z,911.08
2019-04-29T08:26:12.981Z,911.07
2019-04-29T08:27:12.948Z,911.07
2019-04-29T08:28:12.918Z,911.07
2019-04-29T08:29:12.883Z,911.09
2019-04-29T08:30:12.851Z,911.09
2019-04-29T08:31:16.642Z,911.10
2019-04-29T08:32:12.948Z,911.12
2019-04-29T08:33:13.270Z,911.17
2019-04-29T08:34:12.736Z,911.19
2019-04-29T08:35:12.671Z,911.18
2019-04-29T08:36:12.660Z,911.17
2019-04-29T08:37:12.593Z,911.19
2019-04-29T08:38:12.710Z,911.17
2019-04-29T08:39:12.590Z,911.19
2019-04-29T08:40:16.222Z,911.22
2019-04-29T08:41:12.469Z,911.23
2019-04-29T08:42:12.428Z,911.23
2019-04-29T08:43:15.856Z,911.24
2019-04-29T08:44:16.323Z,911.25
2019-04-29T08:45:12.358Z,911.28
2019-04-29T08:46:12.327Z,911.31
2019-04-29T08:47:12.260Z,911.30
2019-04-29T08:48:12.252Z,911.34
2019-04-29T08:49:14.737Z,911.37
2019-04-29T08:50:12.182Z,911.39
2019-04-29T08:51:12.134Z,911.41
2019-04-29T08:52:12.147Z,911.43
2019-04-29T08:53:12.100Z,911.44
2019-04-29T08:54:15.791Z,911.44
2019-04-29T08:55:12.016Z,911.43
2019-04-29T08:56:12.092Z,911.43
2019-04-29T08:57:11.944Z,911.40
2019-04-29T08:58:12.894Z,911.42
2019-04-29T08:59:11.887Z,911.44
2019-04-29T09:00:11.848Z,911.43
2019-04-29T09:01:11.802Z,911.42
2019-04-29T09:02:11.784Z,911.45
2019-04-29T09:03:11.765Z,911.50
2019-04-29T09:04:11.870Z,911.48
2019-04-29T09:05:13.173Z,911.49
2019-04-29T09:06:11.631Z,911.53
2019-04-29T09:07:12.882Z,911.53
2019-04-29T09:08:13.417Z,911.55
2019-04-29T09:09:28.084Z,911.55
2019-04-29T09:10:11.741Z,911.60
2019-04-29T09:11:13.036Z,911.63
2019-04-29T09:12:11.424Z,911.57
2019-04-29T09:13:11.410Z,911.59
2019-04-29T09:14:12.923Z,911.64
2019-04-29T09:15:11.326Z,911.64
2019-04-29T09:16:11.295Z,911.65
2019-04-29T09:17:20.119Z,911.64
2019-04-29T09:18:11.403Z,911.65
2019-04-29T09:19:11.213Z,911.67
2019-04-29T09:20:11.180Z,911.68
2019-04-29T09:21:11.144Z,911.71
2019-04-29T09:22:11.089Z,911.71
2019-04-29T09:23:11.085Z,911.76
2019-04-29T09:24:11.056Z,911.72
2019-04-29T09:25:11.111Z,911.77
2019-04-29T09:26:10.952Z,911.79
2019-04-29T09:27:11.286Z,911.76
2019-04-29T09:28:14.930Z,911.78
2019-04-29T09:29:10.856Z,911.84
2019-04-29T09:30:10.825Z,911.85
2019-04-29T09:31:10.817Z,911.86
2019-04-29T09:32:10.755Z,911.84
2019-04-29T09:33:13.078Z,911.85
2019-04-29T09:34:10.707Z,911.87
2019-04-29T09:35:10.679Z,911.89
2019-04-29T09:36:13.791Z,911.90
2019-04-29T09:37:10.601Z,911.92
2019-04-29T09:38:10.618Z,911.93
2019-04-29T09:39:10.538Z,911.94
2019-04-29T09:40:10.502Z,911.92
2019-04-29T09:41:10.465Z,911.93
2019-04-29T09:42:13.246Z,911.94
2019-04-29T09:43:15.743Z,911.93
2019-04-29T09:44:10.348Z,911.98
2019-04-29T09:45:10.341Z,911.94
2019-04-29T09:46:10.301Z,911.97
2019-04-29T09:47:10.331Z,912.01
2019-04-29T09:48:10.226Z,912.00
2019-04-29T09:49:10.207Z,912.04
2019-04-29T09:50:10.158Z,912.06
2019-04-29T09:51:17.296Z,912.04
2019-04-29T09:52:10.102Z,912.03
2019-04-29T09:53:10.074Z,912.07
2019-04-29T09:54:14.491Z,912.11
2019-04-29T09:55:10.040Z,912.13
2019-04-29T09:56:10.017Z,912.11
2019-04-29T09:57:10.264Z,912.16
2019-04-29T09:58:09.923Z,912.21
2019-04-29T09:59:09.862Z,912.22
2019-04-29T10:00:09.864Z,912.20
2019-04-29T10:01:13.750Z,912.23
2019-04-29T10:02:09.827Z,912.27
2019-04-29T10:03:09.910Z,912.24
2019-04-29T10:04:09.720Z,912.32
2019-04-29T10:05:09.686Z,912.34
2019-04-29T10:06:12.383Z,912.36
2019-04-29T10:07:09.630Z,912.39
2019-04-29T10:08:09.659Z,912.41
2019-04-29T10:09:09.699Z,912.39
2019-04-29T10:10:09.514Z,912.40
2019-04-29T10:11:09.480Z,912.43
2019-04-29T10:12:09.473Z,912.43
2019-04-29T10:13:09.432Z,912.46
2019-04-29T10:14:09.565Z,912.45
2019-04-29T10:15:09.355Z,912.47
2019-04-29T10:16:09.324Z,912.48
2019-04-29T10:17:11.252Z,912.48
2019-04-29T10:18:09.261Z,912.52
2019-04-29T10:19:09.230Z,912.51
2019-04-29T10:20:09.221Z,912.51
2019-04-29T10:21:09.189Z,912.56
2019-04-29T10:22:09.151Z,912.58
2019-04-29T10:23:09.156Z,912.56
2019-04-29T10:25:09.050Z,912.56
2019-04-29T10:26:09.045Z,912.57
2019-04-29T10:27:09.000Z,912.59
2019-04-29T10:28:09.008Z,912.59
2019-04-29T10:29:08.925Z,912.62
2019-04-29T10:30:08.901Z,912.62
2019-04-29T10:31:08.870Z,912.63
2019-04-29T10:32:08.843Z,912.64
2019-04-29T10:33:12.841Z,912.65
2019-04-29T10:34:08.769Z,912.67
2019-04-29T10:35:10.532Z,912.72
2019-04-29T10:36:08.728Z,912.73
2019-04-29T10:37:08.698Z,912.70
2019-04-29T10:38:08.643Z,912.79
2019-04-29T10:39:08.625Z,912.81
2019-04-29T10:40:11.451Z,912.83
2019-04-29T10:41:08.572Z,912.85
2019-04-29T10:42:08.547Z,912.90
2019-04-29T10:43:11.339Z,912.93
2019-04-29T10:44:08.473Z,912.90
2019-04-29T10:45:08.436Z,912.91
2019-04-29T10:46:08.657Z,912.92
2019-04-29T10:47:08.374Z,912.95
2019-04-29T10:48:08.356Z,912.96
2019-04-29T10:49:08.344Z,912.91
2019-04-29T10:50:10.549Z,912.93
2019-04-29T10:51:08.264Z,912.96
2019-04-29T10:52:08.236Z,913.00
2019-04-29T10:53:11.073Z,913.01
2019-04-29T10:54:08.176Z,913.01
2019-04-29T10:55:08.147Z,913.07
2019-04-29T10:56:08.135Z,913.06
2019-04-29T10:57:10.601Z,913.11
2019-04-29T10:58:08.129Z,913.15
2019-04-29T10:59:09.085Z,913.17
2019-04-29T11:00:08.032Z,913.15
2019-04-29T11:01:07.995Z,913.21
2019-04-29T11:02:13.378Z,913.28
2019-04-29T11:03:07.929Z,913.37
2019-04-29T11:04:08.873Z,913.45
2019-04-29T11:05:11.481Z,913.49
2019-04-29T11:06:07.878Z,913.63
2019-04-29T11:07:14.117Z,913.72
2019-04-29T11:08:07.821Z,913.99
2019-04-29T11:09:09.601Z,914.38
2019-04-29T11:10:08.167Z,914.91
2019-04-29T11:11:07.695Z,915.52
2019-04-29T11:12:08.876Z,916.05
2019-04-29T11:13:07.911Z,916.67
2019-04-29T11:14:07.633Z,917.26
2019-04-29T11:15:09.863Z,917.81
2019-04-29T11:16:07.562Z,917.98
2019-04-29T11:17:16.225Z,918.44
2019-04-29T11:18:07.537Z,918.35
2019-04-29T11:19:07.480Z,918.36
2019-04-29T11:20:11.020Z,918.57
2019-04-29T11:21:08.926Z,918.27
2019-04-29T11:22:07.421Z,918.43
2019-04-29T11:23:09.141Z,918.25
2019-04-29T11:24:07.365Z,918.38
2019-04-29T11:25:07.351Z,918.23
2019-04-29T11:26:09.586Z,917.58
2019-04-29T11:27:11.906Z,917.17
2019-04-29T11:28:07.243Z,916.78
2019-04-29T11:29:09.319Z,916.55
2019-04-29T11:30:07.195Z,916.72
2019-04-29T11:31:09.782Z,916.46
2019-04-29T11:32:07.146Z,916.37
2019-04-29T11:33:07.152Z,916.46
2019-04-29T11:34:07.111Z,916.35
2019-04-29T11:35:07.063Z,916.31
2019-04-29T11:36:07.035Z,916.24
2019-04-29T11:37:07.031Z,916.16
2019-04-29T11:38:06.986Z,915.96
2019-04-29T11:39:09.171Z,915.92
2019-04-29T11:40:06.951Z,915.84
2019-04-29T11:41:06.923Z,915.60
2019-04-29T11:42:06.919Z,915.56
2019-04-29T11:43:10.841Z,915.49
2019-04-29T11:44:06.932Z,915.40
2019-04-29T11:45:06.831Z,915.39
2019-04-29T11:46:09.852Z,915.45
2019-04-29T11:47:06.769Z,915.34
2019-04-29T11:48:06.740Z,915.27
2019-04-29T11:49:06.728Z,915.06
2019-04-29T11:50:07.588Z,914.92
2019-04-29T11:51:06.680Z,914.89
2019-04-29T11:52:09.796Z,914.87
2019-04-29T11:53:06.642Z,914.73
2019-04-29T11:54:08.255Z,914.68
2019-04-29T11:55:06.576Z,914.60
2019-04-29T11:56:06.904Z,914.56
2019-04-29T11:57:06.538Z,914.60
2019-04-29T11:58:06.512Z,914.52
2019-04-29T11:59:06.552Z,914.48
2019-04-29T12:00:09.962Z,914.64
2019-04-29T12:01:08.377Z,914.63
2019-04-29T12:02:06.419Z,914.63
2019-04-29T12:03:06.420Z,914.63
2019-04-29T12:04:06.352Z,914.73
2019-04-29T12:05:08.642Z,914.83
2019-04-29T12:06:06.302Z,914.82
2019-04-29T12:07:06.330Z,914.91
2019-04-29T12:08:11.836Z,915.01
2019-04-29T12:09:06.783Z,915.03
2019-04-29T12:10:06.584Z,915.09
2019-04-29T12:11:07.539Z,915.14
2019-04-29T12:12:07.956Z,915.17
2019-04-29T12:13:06.182Z,915.11
2019-04-29T12:14:06.146Z,915.23
2019-04-29T12:15:08.993Z,915.23
2019-04-29T12:16:06.070Z,915.21
2019-04-29T12:17:06.074Z,915.35
2019-04-29T12:18:06.042Z,915.40
2019-04-29T12:19:06.031Z,915.46
2019-04-29T12:20:06.036Z,915.45
2019-04-29T12:21:06.004Z,915.44
2019-04-29T12:22:09.027Z,915.31
2019-04-29T12:23:05.945Z,915.47
2019-04-29T12:24:05.950Z,915.47
2019-04-29T12:25:06.133Z,915.26
2019-04-29T12:26:05.868Z,915.32
2019-04-29T12:27:06.004Z,915.09
2019-04-29T12:28:18.781Z,915.23
2019-04-29T12:29:05.785Z,915.20
2019-04-29T12:30:05.767Z,914.85
2019-04-29T12:31:10.055Z,914.62
2019-04-29T12:32:05.725Z,915.41
2019-04-29T12:33:06.123Z,915.32
2019-04-29T12:34:05.682Z,915.30
2019-04-29T12:35:05.680Z,914.02
2019-04-29T12:36:05.822Z,915.09
2019-04-29T12:37:05.608Z,914.98
2019-04-29T12:38:10.533Z,914.33
2019-04-29T12:39:05.625Z,914.01
2019-04-29T12:40:09.529Z,914.17
2019-04-29T12:41:05.609Z,913.94
2019-04-29T12:42:05.780Z,914.06
2019-04-29T12:43:05.533Z,913.93
2019-04-29T12:44:05.684Z,913.94
2019-04-29T12:45:18.718Z,914.31
2019-04-29T12:46:05.491Z,914.03
2019-04-29T12:47:05.469Z,913.66
2019-04-29T12:48:06.551Z,913.33
2019-04-29T12:49:08.534Z,913.30
2019-04-29T12:50:05.338Z,913.25